Corral City, Texas
Current Conditions -  °F | °C
As of 11:53 AM on Thursday 23 Oct 2014 (Local Time) from KDTO Reporting Station
Overcast Overcast  
Wind Chill: 70°   Ceiling: 9500
Heat Index: 70°   Visibility: 10mi
Dew Point: 55°   Wind: 9mph
Humidity: 59%   Direction: 180°S
Pressure: 30.16"   Gusts: NA
Location:  33.108°N, 97.1641°W
Report Text: KDTO 231653Z 18008KT 10SM FEW075 OVC095 21/13 A3016 RMK AO2 SLP206 T02110128
Loading
Personal Weather Stations






























Interactive Weather Map
Tropical Storm Tracking
New forecast layout! Learn more

10-Day Weather Forecast

Advertisements
Track Severe Weather on mobile